sensor_id;sensor_type;location;lat;lon;timestamp;temperature;humidity
50013;DHT22;35901;48.694;9.476;2023-04-25T00:01:11;6.70;99.90
50013;DHT22;35901;48.694;9.476;2023-04-25T00:03:38;6.80;99.90
50013;DHT22;35901;48.694;9.476;2023-04-25T00:06:04;6.90;99.90
50013;DHT22;35901;48.694;9.476;2023-04-25T00:08:30;6.90;99.90
50013;DHT22;35901;48.694;9.476;2023-04-25T00:10:57;7.00;99.90
50013;DHT22;35901;48.694;9.476;2023-04-25T00:13:23;7.00;99.90
50013;DHT22;35901;48.694;9.476;2023-04-25T00:15:48;7.10;99.90
50013;DHT22;35901;48.694;9.476;2023-04-25T00:18:15;7.00;99.90
50013;DHT22;35901;48.694;9.476;2023-04-25T00:20:40;7.00;99.90
50013;DHT22;35901;48.694;9.476;2023-04-25T00:23:17;7.00;99.90
50013;DHT22;35901;48.694;9.476;2023-04-25T00:25:48;7.00;99.90
50013;DHT22;35901;48.694;9.476;2023-04-25T00:28:14;7.00;99.90
50013;DHT22;35901;48.694;9.476;2023-04-25T00:30:41;6.80;99.90
50013;DHT22;35901;48.694;9.476;2023-04-25T00:33:07;6.80;99.90
50013;DHT22;35901;48.694;9.476;2023-04-25T00:35:33;6.80;99.90
50013;DHT22;35901;48.694;9.476;2023-04-25T00:37:59;6.70;99.90
50013;DHT22;35901;48.694;9.476;2023-04-25T00:40:25;6.70;99.90
50013;DHT22;35901;48.694;9.476;2023-04-25T00:42:52;6.60;99.90
50013;DHT22;35901;48.694;9.476;2023-04-25T00:45:18;6.60;99.90
50013;DHT22;35901;48.694;9.476;2023-04-25T00:47:44;6.60;99.90
50013;DHT22;35901;48.694;9.476;2023-04-25T00:50:11;6.50;99.90
50013;DHT22;35901;48.694;9.476;2023-04-25T00:52:38;6.50;99.90
50013;DHT22;35901;48.694;9.476;2023-04-25T00:55:06;6.60;99.90
50013;DHT22;35901;48.694;9.476;2023-04-25T00:57:32;6.70;99.90
50013;DHT22;35901;48.694;9.476;2023-04-25T00:59:59;6.90;99.90
50013;DHT22;35901;48.694;9.476;2023-04-25T01:02:25;6.90;99.90
50013;DHT22;35901;48.694;9.476;2023-04-25T01:04:52;7.00;99.90
50013;DHT22;35901;48.694;9.476;2023-04-25T01:07:18;7.00;99.90
50013;DHT22;35901;48.694;9.476;2023-04-25T01:09:46;7.00;99.90
50013;DHT22;35901;48.694;9.476;2023-04-25T01:12:11;7.00;99.90
50013;DHT22;35901;48.694;9.476;2023-04-25T01:14:38;7.10;99.90
50013;DHT22;35901;48.694;9.476;2023-04-25T01:17:05;7.10;99.90
50013;DHT22;35901;48.694;9.476;2023-04-25T01:19:30;7.10;99.90
50013;DHT22;35901;48.694;9.476;2023-04-25T01:21:57;7.10;99.90
50013;DHT22;35901;48.694;9.476;2023-04-25T01:24:23;7.10;99.90
50013;DHT22;35901;48.694;9.476;2023-04-25T01:26:49;7.10;99.90
50013;DHT22;35901;48.694;9.476;2023-04-25T01:29:19;7.10;99.90
50013;DHT22;35901;48.694;9.476;2023-04-25T01:31:46;7.10;99.90
50013;DHT22;35901;48.694;9.476;2023-04-25T01:34:12;7.20;99.90
50013;DHT22;35901;48.694;9.476;2023-04-25T01:36:39;7.10;99.90
50013;DHT22;35901;48.694;9.476;2023-04-25T01:39:05;7.10;99.90
50013;DHT22;35901;48.694;9.476;2023-04-25T01:41:31;7.10;99.90
50013;DHT22;35901;48.694;9.476;2023-04-25T01:43:57;7.00;99.90
50013;DHT22;35901;48.694;9.476;2023-04-25T01:46:23;7.00;99.90
50013;DHT22;35901;48.694;9.476;2023-04-25T01:48:49;7.00;99.90
50013;DHT22;35901;48.694;9.476;2023-04-25T01:51:15;7.00;99.90
50013;DHT22;35901;48.694;9.476;2023-04-25T01:53:42;7.00;99.90
50013;DHT22;35901;48.694;9.476;2023-04-25T01:56:08;7.00;99.90
50013;DHT22;35901;48.694;9.476;2023-04-25T01:58:35;7.00;99.90
50013;DHT22;35901;48.694;9.476;2023-04-25T02:01:10;7.00;99.90
50013;DHT22;35901;48.694;9.476;2023-04-25T02:03:43;6.90;99.90
50013;DHT22;35901;48.694;9.476;2023-04-25T02:06:27;7.00;99.90
50013;DHT22;35901;48.694;9.476;2023-04-25T02:08:55;6.90;99.90
50013;DHT22;35901;48.694;9.476;2023-04-25T02:11:21;7.00;99.90
50013;DHT22;35901;48.694;9.476;2023-04-25T02:13:57;6.90;99.90
50013;DHT22;35901;48.694;9.476;2023-04-25T02:16:43;6.90;99.90
50013;DHT22;35901;48.694;9.476;2023-04-25T02:19:10;6.90;99.90
50013;DHT22;35901;48.694;9.476;2023-04-25T02:21:35;6.90;99.90
50013;DHT22;35901;48.694;9.476;2023-04-25T02:24:02;6.90;99.90
50013;DHT22;35901;48.694;9.476;2023-04-25T02:26:28;6.80;99.90
50013;DHT22;35901;48.694;9.476;2023-04-25T02:28:57;6.80;99.90
50013;DHT22;35901;48.694;9.476;2023-04-25T02:31:23;6.80;99.90
50013;DHT22;35901;48.694;9.476;2023-04-25T02:33:50;6.70;99.90
50013;DHT22;35901;48.694;9.476;2023-04-25T02:36:15;6.60;99.90
50013;DHT22;35901;48.694;9.476;2023-04-25T02:38:41;6.60;99.90
50013;DHT22;35901;48.694;9.476;2023-04-25T02:41:07;6.60;99.90
50013;DHT22;35901;48.694;9.476;2023-04-25T02:43:32;6.50;99.90
50013;DHT22;35901;48.694;9.476;2023-04-25T02:45:58;6.40;99.90
50013;DHT22;35901;48.694;9.476;2023-04-25T02:48:24;6.40;99.90
50013;DHT22;35901;48.694;9.476;2023-04-25T02:50:49;6.30;99.90
50013;DHT22;35901;48.694;9.476;2023-04-25T02:53:15;6.30;99.90
50013;DHT22;35901;48.694;9.476;2023-04-25T02:55:46;6.30;99.90
50013;DHT22;35901;48.694;9.476;2023-04-25T02:58:11;6.10;99.90
50013;DHT22;35901;48.694;9.476;2023-04-25T03:00:45;6.10;99.90
50013;DHT22;35901;48.694;9.476;2023-04-25T03:03:10;6.10;99.90
50013;DHT22;35901;48.694;9.476;2023-04-25T03:05:36;6.10;99.90
50013;DHT22;35901;48.694;9.476;2023-04-25T03:08:02;6.00;99.90
50013;DHT22;35901;48.694;9.476;2023-04-25T03:10:29;6.00;99.90
50013;DHT22;35901;48.694;9.476;2023-04-25T03:12:59;6.00;99.90
50013;DHT22;35901;48.694;9.476;2023-04-25T03:15:25;5.90;99.90
50013;DHT22;35901;48.694;9.476;2023-04-25T03:17:51;5.90;99.90
50013;DHT22;35901;48.694;9.476;2023-04-25T03:20:17;5.90;99.90
50013;DHT22;35901;48.694;9.476;2023-04-25T03:22:43;5.90;99.90
50013;DHT22;35901;48.694;9.476;2023-04-25T03:25:09;5.80;99.90
50013;DHT22;35901;48.694;9.476;2023-04-25T03:27:35;5.80;99.90
50013;DHT22;35901;48.694;9.476;2023-04-25T03:30:02;5.70;99.90
50013;DHT22;35901;48.694;9.476;2023-04-25T03:32:28;5.70;99.90
50013;DHT22;35901;48.694;9.476;2023-04-25T03:34:54;5.70;99.90
50013;DHT22;35901;48.694;9.476;2023-04-25T03:37:20;5.70;99.90
50013;DHT22;35901;48.694;9.476;2023-04-25T03:39:46;5.60;99.90
50013;DHT22;35901;48.694;9.476;2023-04-25T03:42:11;5.60;99.90
50013;DHT22;35901;48.694;9.476;2023-04-25T03:44:37;5.60;99.90
50013;DHT22;35901;48.694;9.476;2023-04-25T03:47:04;5.70;99.90
50013;DHT22;35901;48.694;9.476;2023-04-25T03:49:30;5.70;99.90
50013;DHT22;35901;48.694;9.476;2023-04-25T03:52:01;5.80;99.90
50013;DHT22;35901;48.694;9.476;2023-04-25T03:54:32;5.90;99.90
50013;DHT22;35901;48.694;9.476;2023-04-25T03:57:18;5.90;99.90
50013;DHT22;35901;48.694;9.476;2023-04-25T03:59:43;5.90;99.90
50013;DHT22;35901;48.694;9.476;2023-04-25T04:02:12;5.80;99.90
50013;DHT22;35901;48.694;9.476;2023-04-25T04:04:39;5.70;99.90
50013;DHT22;35901;48.694;9.476;2023-04-25T04:07:05;5.60;99.90
50013;DHT22;35901;48.694;9.476;2023-04-25T04:09:38;5.50;99.90
50013;DHT22;35901;48.694;9.476;2023-04-25T04:12:11;5.40;99.90
50013;DHT22;35901;48.694;9.476;2023-04-25T04:14:40;5.40;99.90
50013;DHT22;35901;48.694;9.476;2023-04-25T04:17:05;5.30;99.90
50013;DHT22;35901;48.694;9.476;2023-04-25T04:19:31;5.40;99.90
50013;DHT22;35901;48.694;9.476;2023-04-25T04:22:17;5.40;99.90
50013;DHT22;35901;48.694;9.476;2023-04-25T04:24:42;5.50;99.90
50013;DHT22;35901;48.694;9.476;2023-04-25T04:27:14;5.60;99.90
50013;DHT22;35901;48.694;9.476;2023-04-25T04:30:12;5.70;99.90
50013;DHT22;35901;48.694;9.476;2023-04-25T04:32:51;5.90;99.90
50013;DHT22;35901;48.694;9.476;2023-04-25T04:35:17;6.00;99.90
50013;DHT22;35901;48.694;9.476;2023-04-25T04:37:43;6.00;99.90
50013;DHT22;35901;48.694;9.476;2023-04-25T04:40:11;6.00;99.90
50013;DHT22;35901;48.694;9.476;2023-04-25T04:42:53;6.10;99.90
50013;DHT22;35901;48.694;9.476;2023-04-25T04:45:27;6.20;99.90
50013;DHT22;35901;48.694;9.476;2023-04-25T04:48:07;6.30;99.90
50013;DHT22;35901;48.694;9.476;2023-04-25T04:50:33;6.30;99.90
50013;DHT22;35901;48.694;9.476;2023-04-25T04:53:30;6.40;99.90
50013;DHT22;35901;48.694;9.476;2023-04-25T04:56:12;6.40;99.90
50013;DHT22;35901;48.694;9.476;2023-04-25T04:58:54;6.40;99.90
50013;DHT22;35901;48.694;9.476;2023-04-25T05:01:49;6.50;99.90
50013;DHT22;35901;48.694;9.476;2023-04-25T05:04:44;6.80;99.90
50013;DHT22;35901;48.694;9.476;2023-04-25T05:07:38;7.00;99.90
50013;DHT22;35901;48.694;9.476;2023-04-25T05:10:09;6.90;99.90
50013;DHT22;35901;48.694;9.476;2023-04-25T05:13:02;6.90;99.90
50013;DHT22;35901;48.694;9.476;2023-04-25T05:15:50;6.90;99.90
50013;DHT22;35901;48.694;9.476;2023-04-25T05:18:48;6.90;99.90
50013;DHT22;35901;48.694;9.476;2023-04-25T05:21:34;6.90;99.90
50013;DHT22;35901;48.694;9.476;2023-04-25T05:24:20;6.90;99.90
50013;DHT22;35901;48.694;9.476;2023-04-25T05:27:04;7.00;99.90
50013;DHT22;35901;48.694;9.476;2023-04-25T05:30:04;7.00;99.90
50013;DHT22;35901;48.694;9.476;2023-04-25T05:32:49;7.00;99.90
50013;DHT22;35901;48.694;9.476;2023-04-25T05:35:15;7.10;99.90
50013;DHT22;35901;48.694;9.476;2023-04-25T05:37:45;7.10;99.90
50013;DHT22;35901;48.694;9.476;2023-04-25T05:40:14;7.10;99.90
50013;DHT22;35901;48.694;9.476;2023-04-25T05:43:18;7.20;99.90
50013;DHT22;35901;48.694;9.476;2023-04-25T05:45:58;7.20;99.90
50013;DHT22;35901;48.694;9.476;2023-04-25T05:48:41;7.20;99.90
50013;DHT22;35901;48.694;9.476;2023-04-25T05:51:36;7.20;99.90
50013;DHT22;35901;48.694;9.476;2023-04-25T05:54:24;7.30;99.90
50013;DHT22;35901;48.694;9.476;2023-04-25T05:56:50;7.40;99.90
50013;DHT22;35901;48.694;9.476;2023-04-25T05:59:16;7.60;99.90
50013;DHT22;35901;48.694;9.476;2023-04-25T06:01:42;7.70;99.90
50013;DHT22;35901;48.694;9.476;2023-04-25T06:04:08;7.90;99.90
50013;DHT22;35901;48.694;9.476;2023-04-25T06:06:34;8.30;99.90
50013;DHT22;35901;48.694;9.476;2023-04-25T06:08:59;8.60;99.90
50013;DHT22;35901;48.694;9.476;2023-04-25T06:11:25;8.90;99.90
50013;DHT22;35901;48.694;9.476;2023-04-25T06:13:51;9.10;99.90
50013;DHT22;35901;48.694;9.476;2023-04-25T06:16:17;9.20;99.90
50013;DHT22;35901;48.694;9.476;2023-04-25T06:18:42;9.10;99.90
50013;DHT22;35901;48.694;9.476;2023-04-25T06:21:08;9.10;99.90
50013;DHT22;35901;48.694;9.476;2023-04-25T06:23:34;9.50;99.90
50013;DHT22;35901;48.694;9.476;2023-04-25T06:26:06;9.60;99.90
50013;DHT22;35901;48.694;9.476;2023-04-25T06:28:33;9.40;99.90
50013;DHT22;35901;48.694;9.476;2023-04-25T06:30:59;9.20;99.90
50013;DHT22;35901;48.694;9.476;2023-04-25T06:33:24;9.10;99.90
50013;DHT22;35901;48.694;9.476;2023-04-25T06:35:51;9.00;99.90
50013;DHT22;35901;48.694;9.476;2023-04-25T06:38:22;9.10;99.90
50013;DHT22;35901;48.694;9.476;2023-04-25T06:40:50;9.30;99.90
50013;DHT22;35901;48.694;9.476;2023-04-25T06:43:17;9.70;99.90
50013;DHT22;35901;48.694;9.476;2023-04-25T06:45:48;10.10;99.90
50013;DHT22;35901;48.694;9.476;2023-04-25T06:48:15;10.40;99.90
50013;DHT22;35901;48.694;9.476;2023-04-25T06:50:41;10.60;99.90
50013;DHT22;35901;48.694;9.476;2023-04-25T06:53:07;10.60;99.90
50013;DHT22;35901;48.694;9.476;2023-04-25T06:55:35;10.40;99.90
50013;DHT22;35901;48.694;9.476;2023-04-25T06:58:27;10.10;99.90
50013;DHT22;35901;48.694;9.476;2023-04-25T07:01:00;9.70;99.90
50013;DHT22;35901;48.694;9.476;2023-04-25T07:03:27;9.60;99.90
50013;DHT22;35901;48.694;9.476;2023-04-25T07:05:57;9.50;99.90
50013;DHT22;35901;48.694;9.476;2023-04-25T07:08:24;9.30;99.90
50013;DHT22;35901;48.694;9.476;2023-04-25T07:10:50;9.20;99.90
50013;DHT22;35901;48.694;9.476;2023-04-25T07:13:16;9.10;99.90
50013;DHT22;35901;48.694;9.476;2023-04-25T07:15:41;9.00;99.90
50013;DHT22;35901;48.694;9.476;2023-04-25T07:18:08;8.90;99.90
50013;DHT22;35901;48.694;9.476;2023-04-25T07:20:33;8.80;99.90
50013;DHT22;35901;48.694;9.476;2023-04-25T07:22:59;8.70;99.90
50013;DHT22;35901;48.694;9.476;2023-04-25T07:25:25;8.70;99.90
50013;DHT22;35901;48.694;9.476;2023-04-25T07:27:51;8.70;99.90
50013;DHT22;35901;48.694;9.476;2023-04-25T07:30:18;8.60;99.90
50013;DHT22;35901;48.694;9.476;2023-04-25T07:32:44;8.60;99.90
50013;DHT22;35901;48.694;9.476;2023-04-25T07:35:10;8.50;99.90
50013;DHT22;35901;48.694;9.476;2023-04-25T07:37:37;8.50;99.90
50013;DHT22;35901;48.694;9.476;2023-04-25T07:40:09;8.50;99.90
50013;DHT22;35901;48.694;9.476;2023-04-25T07:42:38;8.50;99.90
50013;DHT22;35901;48.694;9.476;2023-04-25T07:45:06;8.50;99.90
50013;DHT22;35901;48.694;9.476;2023-04-25T07:47:32;8.50;99.90
50013;DHT22;35901;48.694;9.476;2023-04-25T07:49:57;8.50;99.90
50013;DHT22;35901;48.694;9.476;2023-04-25T07:52:23;8.50;99.90
50013;DHT22;35901;48.694;9.476;2023-04-25T07:54:56;8.50;99.90
50013;DHT22;35901;48.694;9.476;2023-04-25T07:57:31;8.40;99.90
50013;DHT22;35901;48.694;9.476;2023-04-25T07:59:57;8.30;99.90
50013;DHT22;35901;48.694;9.476;2023-04-25T08:02:24;8.20;99.90
50013;DHT22;35901;48.694;9.476;2023-04-25T08:04:54;8.10;99.90
50013;DHT22;35901;48.694;9.476;2023-04-25T08:07:20;8.10;99.90
50013;DHT22;35901;48.694;9.476;2023-04-25T08:09:54;8.00;99.90
50013;DHT22;35901;48.694;9.476;2023-04-25T08:12:27;8.00;99.90
50013;DHT22;35901;48.694;9.476;2023-04-25T08:14:53;7.90;99.90
50013;DHT22;35901;48.694;9.476;2023-04-25T08:17:19;7.80;99.90
50013;DHT22;35901;48.694;9.476;2023-04-25T08:19:45;7.90;99.90
50013;DHT22;35901;48.694;9.476;2023-04-25T08:22:21;7.80;99.90
50013;DHT22;35901;48.694;9.476;2023-04-25T08:24:53;7.80;99.90
50013;DHT22;35901;48.694;9.476;2023-04-25T08:27:19;7.80;99.90
50013;DHT22;35901;48.694;9.476;2023-04-25T08:29:47;7.80;99.90
50013;DHT22;35901;48.694;9.476;2023-04-25T08:32:13;7.70;99.90
50013;DHT22;35901;48.694;9.476;2023-04-25T08:34:46;7.70;99.90
50013;DHT22;35901;48.694;9.476;2023-04-25T08:37:13;7.60;99.90
50013;DHT22;35901;48.694;9.476;2023-04-25T08:39:46;7.60;99.90
50013;DHT22;35901;48.694;9.476;2023-04-25T08:42:49;7.50;99.90
50013;DHT22;35901;48.694;9.476;2023-04-25T08:45:15;7.50;99.90
50013;DHT22;35901;48.694;9.476;2023-04-25T08:47:44;7.40;99.90
50013;DHT22;35901;48.694;9.476;2023-04-25T08:50:10;7.30;99.90
50013;DHT22;35901;48.694;9.476;2023-04-25T08:52:44;7.20;99.90
50013;DHT22;35901;48.694;9.476;2023-04-25T08:55:14;7.10;99.90
50013;DHT22;35901;48.694;9.476;2023-04-25T08:57:41;7.10;99.90
50013;DHT22;35901;48.694;9.476;2023-04-25T09:00:09;7.00;99.90
50013;DHT22;35901;48.694;9.476;2023-04-25T09:02:39;7.00;99.90
50013;DHT22;35901;48.694;9.476;2023-04-25T09:05:05;7.00;99.90
50013;DHT22;35901;48.694;9.476;2023-04-25T09:07:35;7.00;99.90
50013;DHT22;35901;48.694;9.476;2023-04-25T09:10:01;7.00;99.90
50013;DHT22;35901;48.694;9.476;2023-04-25T09:12:30;6.90;99.90
50013;DHT22;35901;48.694;9.476;2023-04-25T09:15:05;6.90;99.90
50013;DHT22;35901;48.694;9.476;2023-04-25T09:18:02;6.90;99.90
50013;DHT22;35901;48.694;9.476;2023-04-25T09:20:42;6.90;99.90
50013;DHT22;35901;48.694;9.476;2023-04-25T09:23:08;7.00;99.90
50013;DHT22;35901;48.694;9.476;2023-04-25T09:25:37;7.00;99.90
50013;DHT22;35901;48.694;9.476;2023-04-25T09:28:06;7.00;99.90
50013;DHT22;35901;48.694;9.476;2023-04-25T09:30:34;6.90;99.90
50013;DHT22;35901;48.694;9.476;2023-04-25T09:33:09;6.90;99.90
50013;DHT22;35901;48.694;9.476;2023-04-25T09:35:42;6.90;99.90
50013;DHT22;35901;48.694;9.476;2023-04-25T09:38:14;6.90;99.90
50013;DHT22;35901;48.694;9.476;2023-04-25T09:41:07;7.00;99.90
50013;DHT22;35901;48.694;9.476;2023-04-25T09:43:38;7.00;99.90
50013;DHT22;35901;48.694;9.476;2023-04-25T09:46:11;7.10;99.90
50013;DHT22;35901;48.694;9.476;2023-04-25T09:48:48;7.10;99.90
50013;DHT22;35901;48.694;9.476;2023-04-25T09:51:16;7.10;99.90
50013;DHT22;35901;48.694;9.476;2023-04-25T09:53:46;7.10;99.90
50013;DHT22;35901;48.694;9.476;2023-04-25T09:56:35;7.00;99.90
50013;DHT22;35901;48.694;9.476;2023-04-25T09:59:05;6.90;99.90
50013;DHT22;35901;48.694;9.476;2023-04-25T10:01:33;6.90;99.90
50013;DHT22;35901;48.694;9.476;2023-04-25T10:04:18;6.90;99.90
50013;DHT22;35901;48.694;9.476;2023-04-25T10:06:53;6.80;99.90
50013;DHT22;35901;48.694;9.476;2023-04-25T10:09:21;6.80;99.90
50013;DHT22;35901;48.694;9.476;2023-04-25T10:11:50;6.80;99.90
50013;DHT22;35901;48.694;9.476;2023-04-25T10:14:16;6.70;99.90
50013;DHT22;35901;48.694;9.476;2023-04-25T10:16:42;6.60;99.90
50013;DHT22;35901;48.694;9.476;2023-04-25T10:19:09;6.60;99.90
50013;DHT22;35901;48.694;9.476;2023-04-25T10:21:40;6.60;99.90
50013;DHT22;35901;48.694;9.476;2023-04-25T10:24:10;6.50;99.90
50013;DHT22;35901;48.694;9.476;2023-04-25T10:26:36;6.20;99.90
50013;DHT22;35901;48.694;9.476;2023-04-25T10:29:03;6.00;99.90
50013;DHT22;35901;48.694;9.476;2023-04-25T10:31:30;5.80;99.90
50013;DHT22;35901;48.694;9.476;2023-04-25T10:33:56;5.80;99.90
50013;DHT22;35901;48.694;9.476;2023-04-25T10:36:23;5.80;99.90
50013;DHT22;35901;48.694;9.476;2023-04-25T10:38:50;5.90;99.90
50013;DHT22;35901;48.694;9.476;2023-04-25T10:41:20;6.00;99.90
50013;DHT22;35901;48.694;9.476;2023-04-25T10:43:49;6.20;99.90
50013;DHT22;35901;48.694;9.476;2023-04-25T10:46:16;6.30;99.90
50013;DHT22;35901;48.694;9.476;2023-04-25T10:48:54;6.30;99.90
50013;DHT22;35901;48.694;9.476;2023-04-25T10:51:22;6.30;99.90
50013;DHT22;35901;48.694;9.476;2023-04-25T10:54:08;6.30;99.90
50013;DHT22;35901;48.694;9.476;2023-04-25T10:56:38;6.20;99.90
50013;DHT22;35901;48.694;9.476;2023-04-25T10:59:25;6.20;99.90
50013;DHT22;35901;48.694;9.476;2023-04-25T11:01:54;6.20;99.90
50013;DHT22;35901;48.694;9.476;2023-04-25T11:04:25;6.00;99.90
50013;DHT22;35901;48.694;9.476;2023-04-25T11:09:28;5.90;99.90
50013;DHT22;35901;48.694;9.476;2023-04-25T11:11:56;5.90;99.90
50013;DHT22;35901;48.694;9.476;2023-04-25T11:14:22;5.90;99.90
50013;DHT22;35901;48.694;9.476;2023-04-25T11:16:55;6.00;99.90
50013;DHT22;35901;48.694;9.476;2023-04-25T11:19:22;6.00;99.90
50013;DHT22;35901;48.694;9.476;2023-04-25T11:21:47;6.00;99.90
50013;DHT22;35901;48.694;9.476;2023-04-25T11:24:13;6.00;99.90
50013;DHT22;35901;48.694;9.476;2023-04-25T11:26:41;6.00;99.90
50013;DHT22;35901;48.694;9.476;2023-04-25T11:29:07;6.00;99.90
50013;DHT22;35901;48.694;9.476;2023-04-25T11:31:33;6.00;99.90
50013;DHT22;35901;48.694;9.476;2023-04-25T11:33:58;5.90;99.90
50013;DHT22;35901;48.694;9.476;2023-04-25T11:36:24;5.90;99.90
50013;DHT22;35901;48.694;9.476;2023-04-25T11:38:51;5.80;99.90
50013;DHT22;35901;48.694;9.476;2023-04-25T11:41:18;5.70;99.90
50013;DHT22;35901;48.694;9.476;2023-04-25T11:43:44;5.70;99.90
50013;DHT22;35901;48.694;9.476;2023-04-25T11:46:10;5.70;99.90
50013;DHT22;35901;48.694;9.476;2023-04-25T11:48:40;5.70;99.90
50013;DHT22;35901;48.694;9.476;2023-04-25T11:51:07;5.70;99.90
50013;DHT22;35901;48.694;9.476;2023-04-25T11:53:32;5.80;99.90
50013;DHT22;35901;48.694;9.476;2023-04-25T11:55:58;5.90;99.90
50013;DHT22;35901;48.694;9.476;2023-04-25T11:58:25;5.90;99.90
50013;DHT22;35901;48.694;9.476;2023-04-25T12:00:51;6.00;99.90
50013;DHT22;35901;48.694;9.476;2023-04-25T12:03:18;6.10;99.90
50013;DHT22;35901;48.694;9.476;2023-04-25T12:05:44;6.10;99.90
50013;DHT22;35901;48.694;9.476;2023-04-25T12:08:14;6.20;99.90
50013;DHT22;35901;48.694;9.476;2023-04-25T12:10:43;6.40;99.90
50013;DHT22;35901;48.694;9.476;2023-04-25T12:15:46;6.70;99.90
50013;DHT22;35901;48.694;9.476;2023-04-25T12:18:11;6.80;99.90
50013;DHT22;35901;48.694;9.476;2023-04-25T12:20:37;7.00;99.90
50013;DHT22;35901;48.694;9.476;2023-04-25T12:23:06;7.00;99.90
50013;DHT22;35901;48.694;9.476;2023-04-25T12:28:22;7.30;99.90
50013;DHT22;35901;48.694;9.476;2023-04-25T12:31:07;7.40;99.90
50013;DHT22;35901;48.694;9.476;2023-04-25T12:33:37;7.70;99.90
50013;DHT22;35901;48.694;9.476;2023-04-25T12:36:06;7.80;99.90
50013;DHT22;35901;48.694;9.476;2023-04-25T12:38:38;7.90;99.90
50013;DHT22;35901;48.694;9.476;2023-04-25T12:41:04;7.80;99.90
50013;DHT22;35901;48.694;9.476;2023-04-25T12:43:30;7.80;99.90
50013;DHT22;35901;48.694;9.476;2023-04-25T12:45:56;7.90;99.90
50013;DHT22;35901;48.694;9.476;2023-04-25T12:48:23;8.10;99.90
50013;DHT22;35901;48.694;9.476;2023-04-25T12:50:49;8.20;99.90
50013;DHT22;35901;48.694;9.476;2023-04-25T12:53:22;8.20;99.90
50013;DHT22;35901;48.694;9.476;2023-04-25T12:55:50;8.20;99.90
50013;DHT22;35901;48.694;9.476;2023-04-25T12:58:18;8.30;99.90
50013;DHT22;35901;48.694;9.476;2023-04-25T13:00:44;8.30;99.90
50013;DHT22;35901;48.694;9.476;2023-04-25T13:03:10;8.40;99.90
50013;DHT22;35901;48.694;9.476;2023-04-25T13:05:37;8.50;99.90
50013;DHT22;35901;48.694;9.476;2023-04-25T13:08:03;8.70;99.90
50013;DHT22;35901;48.694;9.476;2023-04-25T13:10:29;8.80;99.90
50013;DHT22;35901;48.694;9.476;2023-04-25T13:12:55;8.80;99.90
50013;DHT22;35901;48.694;9.476;2023-04-25T13:15:21;8.80;99.90
50013;DHT22;35901;48.694;9.476;2023-04-25T13:17:47;8.70;99.90
50013;DHT22;35901;48.694;9.476;2023-04-25T13:20:13;8.50;99.90
50013;DHT22;35901;48.694;9.476;2023-04-25T13:22:40;8.40;99.90
50013;DHT22;35901;48.694;9.476;2023-04-25T13:25:07;8.40;99.90
50013;DHT22;35901;48.694;9.476;2023-04-25T13:27:34;8.40;99.90
50013;DHT22;35901;48.694;9.476;2023-04-25T13:30:01;8.50;99.90
50013;DHT22;35901;48.694;9.476;2023-04-25T13:32:30;8.60;99.90
50013;DHT22;35901;48.694;9.476;2023-04-25T13:34:55;8.80;99.90
50013;DHT22;35901;48.694;9.476;2023-04-25T13:37:21;9.00;99.90
50013;DHT22;35901;48.694;9.476;2023-04-25T13:39:49;9.10;99.90
50013;DHT22;35901;48.694;9.476;2023-04-25T13:42:15;9.20;99.90
50013;DHT22;35901;48.694;9.476;2023-04-25T13:44:41;9.30;99.90
50013;DHT22;35901;48.694;9.476;2023-04-25T13:47:07;9.30;99.90
50013;DHT22;35901;48.694;9.476;2023-04-25T13:49:32;9.50;99.90
50013;DHT22;35901;48.694;9.476;2023-04-25T13:51:58;9.60;99.90
50013;DHT22;35901;48.694;9.476;2023-04-25T13:54:23;9.50;99.90
50013;DHT22;35901;48.694;9.476;2023-04-25T13:56:49;9.80;99.90
50013;DHT22;35901;48.694;9.476;2023-04-25T13:59:15;10.30;99.90
50013;DHT22;35901;48.694;9.476;2023-04-25T14:01:41;10.50;99.90
50013;DHT22;35901;48.694;9.476;2023-04-25T14:04:07;10.40;99.90
50013;DHT22;35901;48.694;9.476;2023-04-25T14:06:32;10.10;99.90
50013;DHT22;35901;48.694;9.476;2023-04-25T14:08:58;9.90;99.90
50013;DHT22;35901;48.694;9.476;2023-04-25T14:11:26;9.80;99.90
50013;DHT22;35901;48.694;9.476;2023-04-25T14:13:56;9.80;99.90
50013;DHT22;35901;48.694;9.476;2023-04-25T14:16:22;9.80;99.90
50013;DHT22;35901;48.694;9.476;2023-04-25T14:18:48;9.80;99.90
50013;DHT22;35901;48.694;9.476;2023-04-25T14:21:14;10.10;99.90
50013;DHT22;35901;48.694;9.476;2023-04-25T14:23:39;10.50;99.90
50013;DHT22;35901;48.694;9.476;2023-04-25T14:26:05;10.70;99.90
50013;DHT22;35901;48.694;9.476;2023-04-25T14:28:31;10.70;99.90
50013;DHT22;35901;48.694;9.476;2023-04-25T14:30:57;10.70;99.90
50013;DHT22;35901;48.694;9.476;2023-04-25T14:33:22;10.80;99.90
50013;DHT22;35901;48.694;9.476;2023-04-25T14:35:49;11.00;99.90
50013;DHT22;35901;48.694;9.476;2023-04-25T14:38:14;11.10;99.90
50013;DHT22;35901;48.694;9.476;2023-04-25T14:40:40;11.20;99.90
50013;DHT22;35901;48.694;9.476;2023-04-25T14:43:06;11.10;99.90
50013;DHT22;35901;48.694;9.476;2023-04-25T14:45:33;11.30;99.90
50013;DHT22;35901;48.694;9.476;2023-04-25T14:47:59;11.60;99.90
50013;DHT22;35901;48.694;9.476;2023-04-25T14:50:25;11.90;99.90
50013;DHT22;35901;48.694;9.476;2023-04-25T14:52:50;12.10;99.90
50013;DHT22;35901;48.694;9.476;2023-04-25T14:55:18;11.80;99.90
50013;DHT22;35901;48.694;9.476;2023-04-25T14:57:43;11.40;99.90
50013;DHT22;35901;48.694;9.476;2023-04-25T15:00:10;11.00;99.90
50013;DHT22;35901;48.694;9.476;2023-04-25T15:02:39;10.90;99.90
50013;DHT22;35901;48.694;9.476;2023-04-25T15:05:05;11.30;99.90
50013;DHT22;35901;48.694;9.476;2023-04-25T15:07:30;11.20;99.90
50013;DHT22;35901;48.694;9.476;2023-04-25T15:09:56;10.80;99.90
50013;DHT22;35901;48.694;9.476;2023-04-25T15:12:22;10.60;99.90
50013;DHT22;35901;48.694;9.476;2023-04-25T15:14:48;10.30;99.90
50013;DHT22;35901;48.694;9.476;2023-04-25T15:17:13;10.00;99.90
50013;DHT22;35901;48.694;9.476;2023-04-25T15:19:40;9.80;99.90
50013;DHT22;35901;48.694;9.476;2023-04-25T15:22:05;9.80;99.90
50013;DHT22;35901;48.694;9.476;2023-04-25T15:24:32;9.90;99.90
50013;DHT22;35901;48.694;9.476;2023-04-25T15:26:58;9.80;99.90
50013;DHT22;35901;48.694;9.476;2023-04-25T15:29:24;9.70;99.90
50013;DHT22;35901;48.694;9.476;2023-04-25T15:31:51;10.10;99.90
50013;DHT22;35901;48.694;9.476;2023-04-25T15:34:17;10.40;99.90
50013;DHT22;35901;48.694;9.476;2023-04-25T15:36:43;11.00;99.90
50013;DHT22;35901;48.694;9.476;2023-04-25T15:39:08;11.70;99.90
50013;DHT22;35901;48.694;9.476;2023-04-25T15:41:36;12.20;99.90
50013;DHT22;35901;48.694;9.476;2023-04-25T15:44:01;12.50;99.90
50013;DHT22;35901;48.694;9.476;2023-04-25T15:46:27;12.40;99.90
50013;DHT22;35901;48.694;9.476;2023-04-25T15:48:55;12.00;99.90
50013;DHT22;35901;48.694;9.476;2023-04-25T15:51:21;11.50;99.90
50013;DHT22;35901;48.694;9.476;2023-04-25T15:53:46;11.20;99.90
50013;DHT22;35901;48.694;9.476;2023-04-25T15:56:12;10.80;99.90
50013;DHT22;35901;48.694;9.476;2023-04-25T15:58:38;10.60;99.90
50013;DHT22;35901;48.694;9.476;2023-04-25T16:01:04;11.10;99.90
50013;DHT22;35901;48.694;9.476;2023-04-25T16:03:29;11.40;99.90
50013;DHT22;35901;48.694;9.476;2023-04-25T16:05:57;11.10;99.90